Kimberling City, Missouri
Current Conditions -  °F | °C
As of 4:15 AM on Tuesday 27 Jan 2015 (Local Time) from KFWB Reporting Station
Clear Clear  
Wind Chill: 40°   Ceiling: Unl
Heat Index: 45°   Visibility: 10mi
Dew Point: 32°   Wind: 9mph
Humidity: 61%   Direction: 350°N
Pressure: 30.05"   Gusts: NA
Location:  36.63°N, 93.42°W
Report Text: KFWB 271015Z AUTO 35008KT 10SM CLR 07/00 A3005 RMK AO2
Loading
Personal Weather Stations






























Interactive Weather Map New forecast layout! Learn more

10-Day Weather Forecast

Advertisements
Track Severe Weather on mobile